createdAt,value
2017-11-10T00:00:10.745Z,89.29
2017-11-10T00:01:10.742Z,90.14
2017-11-10T00:02:10.741Z,88.81
2017-11-10T00:03:10.785Z,88.43
2017-11-10T00:04:10.730Z,88.43
2017-11-10T00:05:10.728Z,88.15
2017-11-10T00:06:10.724Z,88.91
2017-11-10T00:07:10.721Z,89.39
2017-11-10T00:08:10.717Z,89.67
2017-11-10T00:09:10.713Z,89.67
2017-11-10T00:10:10.710Z,89.48
2017-11-10T00:11:10.709Z,89.39
2017-11-10T00:12:10.703Z,89.29
2017-11-10T00:13:10.699Z,88.91
2017-11-10T00:14:10.695Z,88.15
2017-11-10T00:15:10.691Z,88.81
2017-11-10T00:16:10.688Z,89.00
2017-11-10T00:17:10.684Z,89.20
2017-11-10T00:18:10.681Z,88.81
2017-11-10T00:19:10.677Z,89.10
2017-11-10T00:20:10.675Z,89.39
2017-11-10T00:21:10.671Z,88.81
2017-11-10T00:22:10.673Z,88.81
2017-11-10T00:23:10.661Z,88.24
2017-11-10T00:24:10.718Z,88.34
2017-11-10T00:25:10.656Z,89.39
2017-11-10T00:26:10.653Z,89.00
2017-11-10T00:27:10.648Z,89.58
2017-11-10T00:28:10.644Z,90.33
2017-11-10T00:29:10.642Z,89.76
2017-11-10T00:30:10.637Z,89.20
2017-11-10T00:31:10.633Z,89.29
2017-11-10T00:32:10.631Z,89.39
2017-11-10T00:33:10.626Z,89.48
2017-11-10T00:34:10.625Z,90.24
2017-11-10T00:35:10.619Z,89.95
2017-11-10T00:36:10.616Z,90.52
2017-11-10T00:37:10.665Z,89.95
2017-11-10T00:38:10.610Z,90.24
2017-11-10T00:39:10.606Z,89.67
2017-11-10T00:40:10.601Z,90.14
2017-11-10T00:41:10.596Z,90.05
2017-11-10T00:42:10.594Z,89.58
2017-11-10T00:43:10.590Z,88.62
2017-11-10T00:44:10.588Z,88.72
2017-11-10T00:45:10.583Z,87.68
2017-11-10T00:46:10.582Z,87.58
2017-11-10T00:47:10.575Z,87.49
2017-11-10T00:48:10.575Z,86.25
2017-11-10T00:49:10.569Z,86.63
2017-11-10T00:50:10.565Z,86.35
2017-11-10T00:51:10.565Z,86.07
2017-11-10T00:52:10.559Z,86.25
2017-11-10T00:53:10.556Z,86.91
2017-11-10T00:54:10.552Z,87.11
2017-11-10T00:55:10.547Z,86.16
2017-11-10T00:56:10.544Z,86.54
2017-11-10T00:57:10.541Z,86.44
2017-11-10T00:58:10.561Z,86.16
2017-11-10T00:59:10.533Z,84.92
2017-11-10T01:00:10.529Z,85.11
2017-11-10T01:01:10.527Z,86.07
2017-11-10T01:02:10.523Z,85.97
2017-11-10T01:03:10.518Z,84.74
2017-11-10T01:04:10.517Z,85.02
2017-11-10T01:05:10.512Z,85.49
2017-11-10T01:06:10.508Z,85.68
2017-11-10T01:07:10.504Z,85.21
2017-11-10T01:08:10.500Z,85.30
2017-11-10T01:09:10.498Z,86.07
2017-11-10T01:10:10.494Z,85.78
2017-11-10T01:11:10.491Z,85.87
2017-11-10T01:12:10.487Z,85.68
2017-11-10T01:13:10.496Z,85.49
2017-11-10T01:14:10.482Z,86.07
2017-11-10T01:15:10.476Z,85.11
2017-11-10T01:16:10.473Z,86.16
2017-11-10T01:17:10.473Z,87.49
2017-11-10T01:18:10.467Z,88.34
2017-11-10T01:19:10.461Z,88.53
2017-11-10T01:20:10.459Z,88.81
2017-11-10T01:21:10.455Z,89.29
2017-11-10T01:22:10.452Z,89.76
2017-11-10T01:23:10.448Z,89.95
2017-11-10T01:24:10.445Z,90.62
2017-11-10T01:25:10.462Z,90.52
2017-11-10T01:26:10.438Z,90.90
2017-11-10T01:27:10.434Z,91.19
2017-11-10T01:28:10.430Z,91.09
2017-11-10T01:29:10.427Z,91.75
2017-11-10T01:30:10.424Z,92.23
2017-11-10T01:31:10.420Z,92.61
2017-11-10T01:32:10.417Z,92.94
2017-11-10T01:33:10.412Z,92.99
2017-11-10T01:34:10.409Z,93.04
2017-11-10T01:35:10.404Z,92.85
2017-11-10T01:36:10.403Z,92.85
2017-11-10T01:37:10.398Z,92.94
2017-11-10T01:38:10.394Z,94.08
2017-11-10T01:39:10.391Z,93.99
2017-11-10T01:40:10.386Z,93.23
2017-11-10T01:41:10.383Z,93.41
2017-11-10T01:42:10.379Z,93.46
2017-11-10T01:43:10.374Z,93.56
2017-11-10T01:44:10.372Z,93.75
2017-11-10T01:45:10.420Z,93.84
2017-11-10T01:46:10.372Z,93.46
2017-11-10T01:47:10.359Z,93.27
2017-11-10T01:48:10.357Z,93.18
2017-11-10T01:49:10.354Z,92.90
2017-11-10T01:50:10.350Z,92.90
2017-11-10T01:51:10.344Z,93.37
2017-11-10T01:52:10.345Z,92.80
2017-11-10T01:53:10.337Z,92.61
2017-11-10T01:54:10.345Z,92.42
2017-11-10T01:55:10.330Z,91.56
2017-11-10T01:56:10.326Z,91.85
2017-11-10T01:57:10.327Z,91.05
2017-11-10T01:58:10.319Z,91.14
2017-11-10T01:59:10.316Z,91.56
2017-11-10T02:00:10.314Z,92.61
2017-11-10T02:01:10.307Z,92.52
2017-11-10T02:02:10.304Z,92.52
2017-11-10T02:03:10.299Z,91.56
2017-11-10T02:04:10.296Z,91.47
2017-11-10T02:05:10.292Z,91.19
2017-11-10T02:06:10.339Z,91.19
2017-11-10T02:07:10.284Z,91.28
2017-11-10T02:08:10.281Z,90.90
2017-11-10T02:09:10.279Z,91.00
2017-11-10T02:10:10.273Z,91.00
2017-11-10T02:11:10.270Z,91.00
2017-11-10T02:12:10.267Z,90.81
2017-11-10T02:13:10.283Z,90.52
2017-11-10T02:14:10.258Z,90.43
2017-11-10T02:15:10.254Z,90.14
2017-11-10T02:16:10.250Z,89.48
2017-11-10T02:17:10.247Z,90.05
2017-11-10T02:18:10.243Z,89.48
2017-11-10T02:19:10.240Z,90.52
2017-11-10T02:20:10.236Z,90.62
2017-11-10T02:21:10.232Z,91.19
2017-11-10T02:22:10.228Z,91.38
2017-11-10T02:23:10.223Z,91.33
2017-11-10T02:24:10.221Z,92.57
2017-11-10T02:25:10.217Z,92.80
2017-11-10T02:26:10.214Z,92.66
2017-11-10T02:27:10.209Z,92.61
2017-11-10T02:28:10.205Z,92.94
2017-11-10T02:29:10.201Z,93.13
2017-11-10T02:30:10.199Z,93.46
2017-11-10T02:31:10.194Z,92.57
2017-11-10T02:32:10.189Z,92.47
2017-11-10T02:33:10.187Z,92.38
2017-11-10T02:34:10.182Z,92.38
2017-11-10T02:35:10.189Z,92.47
2017-11-10T02:36:10.226Z,91.80
2017-11-10T02:37:10.170Z,92.66
2017-11-10T02:38:10.166Z,92.38
2017-11-10T02:39:10.162Z,91.52
2017-11-10T02:40:10.158Z,92.28
2017-11-10T02:41:10.155Z,92.18
2017-11-10T02:42:10.152Z,91.80
2017-11-10T02:43:10.151Z,91.52
2017-11-10T02:44:10.143Z,91.61
2017-11-10T02:45:10.140Z,91.19
2017-11-10T02:46:10.141Z,91.38
2017-11-10T02:47:10.131Z,90.52
2017-11-10T02:48:10.128Z,91.19
2017-11-10T02:49:10.127Z,91.61
2017-11-10T02:50:10.119Z,92.57
2017-11-10T02:51:10.117Z,92.14
2017-11-10T02:52:10.112Z,92.18
2017-11-10T02:53:10.109Z,92.09
2017-11-10T02:54:10.105Z,91.80
2017-11-10T02:55:10.103Z,92.28
2017-11-10T02:56:10.097Z,92.09
2017-11-10T02:57:10.096Z,92.09
2017-11-10T02:58:10.089Z,92.18
2017-11-10T02:59:10.085Z,91.99
2017-11-10T03:00:10.082Z,92.38
2017-11-10T03:01:10.080Z,92.38
2017-11-10T03:02:10.075Z,92.76
2017-11-10T03:03:10.070Z,92.94
2017-11-10T03:04:10.067Z,92.47
2017-11-10T03:05:10.063Z,92.66
2017-11-10T03:06:10.058Z,92.76
2017-11-10T03:07:10.056Z,92.57
2017-11-10T03:08:10.050Z,92.09
2017-11-10T03:09:10.047Z,92.76
2017-11-10T03:10:10.042Z,92.85
2017-11-10T03:11:10.038Z,92.57
2017-11-10T03:12:10.035Z,93.23
2017-11-10T03:13:10.031Z,92.85
2017-11-10T03:14:10.031Z,92.47
2017-11-10T03:15:10.021Z,92.09
2017-11-10T03:16:10.019Z,92.57
2017-11-10T03:17:10.015Z,91.52
2017-11-10T03:18:10.017Z,91.24
2017-11-10T03:19:10.013Z,89.91
2017-11-10T03:20:10.002Z,89.06
2017-11-10T03:21:09.998Z,88.77
2017-11-10T03:22:09.994Z,88.77
2017-11-10T03:23:09.990Z,88.58
2017-11-10T03:24:09.985Z,87.06
2017-11-10T03:25:09.983Z,86.78
2017-11-10T03:26:09.978Z,86.11
2017-11-10T03:27:09.973Z,86.49
2017-11-10T03:28:09.967Z,86.21
2017-11-10T03:29:09.965Z,86.49
2017-11-10T03:30:09.968Z,87.73
2017-11-10T03:31:09.964Z,87.25
2017-11-10T03:32:09.953Z,88.10
2017-11-10T03:33:09.950Z,88.72
2017-11-10T03:34:09.946Z,89.34
2017-11-10T03:35:09.941Z,89.29
2017-11-10T03:36:09.936Z,89.20
2017-11-10T03:37:09.932Z,88.81
2017-11-10T03:38:09.931Z,89.20
2017-11-10T03:39:09.924Z,88.91
2017-11-10T03:40:09.923Z,89.39
2017-11-10T03:41:09.917Z,90.14
2017-11-10T03:42:09.913Z,90.14
2017-11-10T03:43:09.908Z,89.95
2017-11-10T03:44:09.905Z,89.67
2017-11-10T03:45:09.901Z,89.81
2017-11-10T03:46:09.897Z,90.29
2017-11-10T03:47:09.892Z,90.29
2017-11-10T03:48:09.890Z,90.67
2017-11-10T03:49:09.889Z,90.76
2017-11-10T03:50:09.882Z,92.09
2017-11-10T03:51:09.876Z,92.94
2017-11-10T03:52:09.872Z,93.61
2017-11-10T03:53:09.869Z,93.99
2017-11-10T03:54:09.868Z,94.37
2017-11-10T03:55:09.860Z,94.27
2017-11-10T03:56:09.858Z,94.56
2017-11-10T03:57:09.852Z,94.46
2017-11-10T03:58:09.850Z,94.89
2017-11-10T03:59:09.843Z,95.12
2017-11-10T04:00:09.838Z,95.03
2017-11-10T04:01:09.835Z,95.50
2017-11-10T04:02:09.831Z,95.41
2017-11-10T04:03:09.826Z,94.74
2017-11-10T04:04:09.821Z,94.27
2017-11-10T04:05:09.820Z,94.18
2017-11-10T04:06:09.815Z,93.99
2017-11-10T04:07:09.809Z,93.80
2017-11-10T04:08:09.806Z,93.32
2017-11-10T04:09:09.802Z,93.41
2017-11-10T04:10:09.797Z,93.70
2017-11-10T04:11:09.795Z,93.51
2017-11-10T04:12:09.789Z,93.61
2017-11-10T04:13:09.837Z,93.89
2017-11-10T04:14:09.781Z,93.89
2017-11-10T04:15:09.776Z,93.32
2017-11-10T04:16:09.772Z,94.37
2017-11-10T04:17:09.769Z,93.80
2017-11-10T04:18:09.764Z,93.23
2017-11-10T04:19:09.759Z,92.76
2017-11-10T04:20:09.755Z,93.23
2017-11-10T04:21:09.751Z,92.76
2017-11-10T04:22:09.752Z,93.04
2017-11-10T04:23:09.742Z,92.57
2017-11-10T04:24:09.739Z,92.57
2017-11-10T04:25:09.735Z,92.09
2017-11-10T04:26:09.730Z,92.18
2017-11-10T04:27:09.728Z,92.38
2017-11-10T04:28:09.722Z,92.47
2017-11-10T04:29:09.719Z,92.38
2017-11-10T04:30:09.716Z,92.18
2017-11-10T04:31:09.709Z,91.90
2017-11-10T04:32:09.706Z,92.28
2017-11-10T04:33:09.702Z,91.99
2017-11-10T04:34:09.699Z,92.38
2017-11-10T04:35:09.693Z,92.38
2017-11-10T04:36:09.691Z,92.28
2017-11-10T04:37:09.685Z,92.09
2017-11-10T04:38:09.683Z,92.47
2017-11-10T04:39:09.677Z,92.57
2017-11-10T04:40:09.673Z,91.05
2017-11-10T04:41:09.719Z,90.57
2017-11-10T04:42:09.665Z,90.38
2017-11-10T04:43:09.659Z,90.10
2017-11-10T04:44:09.656Z,89.25
2017-11-10T04:45:09.654Z,88.77
2017-11-10T04:46:09.648Z,88.10
2017-11-10T04:47:09.644Z,88.39
2017-11-10T04:48:09.649Z,87.06
2017-11-10T04:49:09.635Z,86.97
2017-11-10T04:50:09.632Z,86.68
2017-11-10T04:51:09.625Z,86.40
2017-11-10T04:52:09.622Z,86.30
2017-11-10T04:53:09.618Z,85.55
2017-11-10T04:54:09.614Z,85.83
2017-11-10T04:55:09.609Z,85.07
2017-11-10T04:56:09.605Z,84.22
2017-11-10T04:57:09.602Z,82.70
2017-11-10T04:58:09.598Z,81.37
2017-11-10T04:59:09.591Z,82.04
2017-11-10T05:00:09.587Z,81.27
2017-11-10T05:01:09.588Z,81.09
2017-11-10T05:02:09.579Z,81.09
2017-11-10T05:03:09.573Z,80.37
2017-11-10T05:04:09.570Z,79.00
2017-11-10T05:05:09.566Z,78.56
2017-11-10T05:06:09.561Z,78.28
2017-11-10T05:07:09.557Z,77.71
2017-11-10T05:08:09.551Z,77.43
2017-11-10T05:09:09.547Z,77.14
2017-11-10T05:10:09.546Z,78.00
2017-11-10T05:11:09.538Z,79.23
2017-11-10T05:12:09.534Z,79.61
2017-11-10T05:13:09.530Z,79.99
2017-11-10T05:14:09.579Z,80.46
2017-11-10T05:15:09.521Z,81.51
2017-11-10T05:16:09.567Z,82.46
2017-11-10T05:17:09.514Z,84.74
2017-11-10T05:18:09.510Z,85.68
2017-11-10T05:19:09.505Z,86.87
2017-11-10T05:20:09.502Z,87.73
2017-11-10T05:21:09.497Z,88.10
2017-11-10T05:22:09.494Z,88.01
2017-11-10T05:23:09.490Z,89.06
2017-11-10T05:24:09.484Z,90.10
2017-11-10T05:25:09.485Z,89.62
2017-11-10T05:26:09.476Z,90.29
2017-11-10T05:27:09.522Z,90.29
2017-11-10T05:28:09.468Z,90.57
2017-11-10T05:29:09.464Z,90.19
2017-11-10T05:30:09.461Z,90.57
2017-11-10T05:31:09.507Z,90.10
2017-11-10T05:32:09.451Z,90.67
2017-11-10T05:33:09.446Z,90.86
2017-11-10T05:34:09.445Z,90.29
2017-11-10T05:35:09.439Z,90.19
2017-11-10T05:36:09.435Z,89.43
2017-11-10T05:37:09.430Z,89.62
2017-11-10T05:38:09.427Z,89.43
2017-11-10T05:39:09.422Z,89.53
2017-11-10T05:40:09.418Z,89.34
2017-11-10T05:41:09.415Z,88.39
2017-11-10T05:42:09.461Z,88.10
2017-11-10T05:43:09.405Z,88.68
2017-11-10T05:44:09.402Z,88.39
2017-11-10T05:45:09.398Z,88.20
2017-11-10T05:46:09.395Z,87.63
2017-11-10T05:47:09.390Z,86.78
2017-11-10T05:48:09.392Z,86.68
2017-11-10T05:49:09.381Z,86.68
2017-11-10T05:50:09.378Z,86.87
2017-11-10T05:51:09.373Z,87.77
2017-11-10T05:52:09.368Z,87.54
2017-11-10T05:53:09.366Z,87.92
2017-11-10T05:54:09.362Z,87.35
2017-11-10T05:55:09.356Z,86.97
2017-11-10T05:56:09.353Z,87.54
2017-11-10T05:57:09.399Z,88.58
2017-11-10T05:58:09.344Z,88.29
2017-11-10T05:59:09.340Z,88.39
2017-11-10T06:00:09.336Z,88.39
2017-11-10T06:01:09.337Z,88.87
2017-11-10T06:02:09.330Z,88.87
2017-11-10T06:03:09.333Z,89.72
2017-11-10T06:04:09.320Z,89.53
2017-11-10T06:05:09.316Z,89.43
2017-11-10T06:06:09.313Z,88.96
2017-11-10T06:07:09.307Z,89.34
2017-11-10T06:08:09.304Z,89.06
2017-11-10T06:09:09.301Z,89.53
2017-11-10T06:10:09.325Z,90.00
2017-11-10T06:11:09.290Z,88.68
2017-11-10T06:12:09.337Z,88.20
2017-11-10T06:13:09.283Z,87.82
2017-11-10T06:14:09.279Z,88.29
2017-11-10T06:15:09.274Z,87.73
2017-11-10T06:16:09.269Z,87.73
2017-11-10T06:17:09.267Z,87.73
2017-11-10T06:18:09.262Z,87.16
2017-11-10T06:19:09.258Z,87.45
2017-11-10T06:20:09.253Z,86.59
2017-11-10T06:21:09.251Z,87.06
2017-11-10T06:22:09.246Z,85.83
2017-11-10T06:23:09.241Z,86.11
2017-11-10T06:24:09.237Z,86.30
2017-11-10T06:25:09.234Z,85.74
2017-11-10T06:26:09.231Z,86.11
2017-11-10T06:27:09.274Z,86.21
2017-11-10T06:28:09.220Z,85.68
2017-11-10T06:29:09.216Z,85.21
2017-11-10T06:30:09.213Z,84.74
2017-11-10T06:31:09.208Z,84.55
2017-11-10T06:32:09.203Z,84.92
2017-11-10T06:33:09.201Z,83.97
2017-11-10T06:34:09.196Z,84.26
2017-11-10T06:35:09.192Z,83.88
2017-11-10T06:36:09.188Z,83.31
2017-11-10T06:37:09.185Z,83.88
2017-11-10T06:38:09.183Z,83.31
2017-11-10T06:39:09.181Z,83.50
2017-11-10T06:40:09.172Z,83.03
2017-11-10T06:41:09.193Z,83.12
2017-11-10T06:42:09.165Z,83.03
2017-11-10T06:43:09.160Z,82.46
2017-11-10T06:44:09.157Z,82.46
2017-11-10T06:45:09.153Z,82.17
2017-11-10T06:46:09.154Z,82.08
2017-11-10T06:47:09.144Z,81.88
2017-11-10T06:48:09.142Z,81.98
2017-11-10T06:49:09.137Z,81.60
2017-11-10T06:50:09.134Z,81.60
2017-11-10T06:51:09.130Z,81.79
2017-11-10T06:52:09.131Z,81.88
2017-11-10T06:53:09.121Z,82.55
2017-11-10T06:54:09.119Z,82.84
2017-11-10T06:55:09.116Z,83.12
2017-11-10T06:56:09.111Z,83.12
2017-11-10T06:57:09.111Z,83.31
2017-11-10T06:58:09.107Z,83.59
2017-11-10T06:59:09.100Z,83.50
2017-11-10T07:00:09.097Z,83.59
2017-11-10T07:01:09.142Z,84.17
2017-11-10T07:02:09.090Z,84.45
2017-11-10T07:03:09.085Z,85.11
2017-11-10T07:04:09.081Z,85.02
2017-11-10T07:05:09.078Z,85.11
2017-11-10T07:06:09.075Z,84.45
2017-11-10T07:07:09.068Z,84.36
2017-11-10T07:08:09.066Z,84.64
2017-11-10T07:09:09.063Z,83.59
2017-11-10T07:10:09.061Z,84.17
2017-11-10T07:11:09.055Z,84.83
2017-11-10T07:12:09.053Z,84.36
2017-11-10T07:13:09.098Z,84.17
2017-11-10T07:14:09.044Z,84.36
2017-11-10T07:15:09.041Z,84.36
2017-11-10T07:16:09.036Z,84.36
2017-11-10T07:17:09.033Z,84.45
2017-11-10T07:18:09.029Z,84.55
2017-11-10T07:19:09.025Z,83.03
2017-11-10T07:20:09.022Z,83.31
2017-11-10T07:21:09.018Z,83.50
2017-11-10T07:22:09.015Z,83.31
2017-11-10T07:23:09.011Z,83.88
2017-11-10T07:24:09.008Z,83.69
2017-11-10T07:25:09.005Z,83.03
2017-11-10T07:26:09.032Z,83.12
2017-11-10T07:27:08.996Z,82.93
2017-11-10T07:28:08.993Z,82.84
2017-11-10T07:29:08.990Z,82.93
2017-11-10T07:30:08.986Z,83.31
2017-11-10T07:31:08.982Z,82.84
2017-11-10T07:32:08.978Z,83.22
2017-11-10T07:33:08.975Z,82.93
2017-11-10T07:34:08.974Z,82.74
2017-11-10T07:35:08.967Z,83.59
2017-11-10T07:36:08.965Z,83.31
2017-11-10T07:37:08.961Z,83.31
2017-11-10T07:38:08.959Z,82.74
2017-11-10T07:39:08.953Z,82.17
2017-11-10T07:40:08.950Z,81.70
2017-11-10T07:41:08.956Z,80.46
2017-11-10T07:42:08.944Z,79.80
2017-11-10T07:43:08.939Z,80.46
2017-11-10T07:44:08.936Z,79.80
2017-11-10T07:45:08.935Z,79.84
2017-11-10T07:46:08.930Z,80.03
2017-11-10T07:47:08.925Z,79.36
2017-11-10T07:48:08.922Z,78.80
2017-11-10T07:49:08.919Z,78.80
2017-11-10T07:50:08.916Z,78.80
2017-11-10T07:51:08.912Z,78.80
2017-11-10T07:52:08.908Z,78.51
2017-11-10T07:53:08.905Z,79.36
2017-11-10T07:54:08.901Z,79.74
2017-11-10T07:55:08.898Z,79.84
2017-11-10T07:56:08.895Z,79.55
2017-11-10T07:57:08.891Z,80.37
2017-11-10T07:58:08.887Z,80.75
2017-11-10T07:59:08.884Z,80.37
2017-11-10T08:00:08.880Z,80.51
2017-11-10T08:01:08.876Z,80.84
2017-11-10T08:02:08.873Z,80.88
2017-11-10T08:03:08.869Z,80.84
2017-11-10T08:04:08.868Z,80.65
2017-11-10T08:05:08.864Z,81.07
2017-11-10T08:06:08.859Z,80.65
2017-11-10T08:07:08.866Z,79.90
2017-11-10T08:08:08.853Z,80.41
2017-11-10T08:09:08.849Z,80.27
2017-11-10T08:10:08.847Z,80.75
2017-11-10T08:11:08.841Z,80.46
2017-11-10T08:12:08.863Z,81.51
2017-11-10T08:13:08.834Z,80.37
2017-11-10T08:14:08.839Z,79.94
2017-11-10T08:15:08.827Z,80.32
2017-11-10T08:16:08.825Z,80.60
2017-11-10T08:17:08.822Z,80.41
2017-11-10T08:18:08.818Z,79.65
2017-11-10T08:19:08.812Z,79.17
2017-11-10T08:20:08.810Z,79.46
2017-11-10T08:21:08.807Z,79.36
2017-11-10T08:22:08.803Z,79.17
2017-11-10T08:23:08.800Z,79.17
2017-11-10T08:24:08.797Z,78.70
2017-11-10T08:25:08.793Z,79.08
2017-11-10T08:26:08.792Z,78.70
2017-11-10T08:27:08.786Z,78.61
2017-11-10T08:28:08.783Z,78.99
2017-11-10T08:29:08.780Z,78.80
2017-11-10T08:30:08.776Z,78.13
2017-11-10T08:31:08.778Z,78.13
2017-11-10T08:32:08.770Z,77.18
2017-11-10T08:33:08.766Z,76.90
2017-11-10T08:34:08.763Z,76.04
2017-11-10T08:35:08.759Z,76.71
2017-11-10T08:36:08.759Z,76.99
2017-11-10T08:37:08.752Z,75.67
2017-11-10T08:38:08.750Z,77.18
2017-11-10T08:39:08.747Z,78.17
2017-11-10T08:40:08.745Z,78.64
2017-11-10T08:41:08.740Z,78.51
2017-11-10T08:42:08.737Z,78.80
2017-11-10T08:43:08.733Z,79.17
2017-11-10T08:44:08.730Z,79.74
2017-11-10T08:45:08.726Z,79.65
2017-11-10T08:46:08.724Z,80.51
2017-11-10T08:47:08.721Z,79.46
2017-11-10T08:48:08.767Z,79.27
2017-11-10T08:49:08.716Z,78.80
2017-11-10T08:50:08.711Z,78.89
2017-11-10T08:51:08.708Z,78.70
2017-11-10T08:52:08.706Z,78.70
2017-11-10T08:53:08.707Z,78.61
2017-11-10T08:54:08.699Z,78.36
2017-11-10T08:55:08.695Z,78.17
2017-11-10T08:56:08.694Z,78.55
2017-11-10T08:57:08.689Z,78.83
2017-11-10T08:58:08.689Z,78.45
2017-11-10T08:59:08.683Z,78.45
2017-11-10T09:00:08.681Z,78.55
2017-11-10T09:01:08.679Z,78.36
2017-11-10T09:02:08.675Z,78.08
2017-11-10T09:03:08.674Z,78.36
2017-11-10T09:04:08.670Z,78.27
2017-11-10T09:05:08.665Z,79.69
2017-11-10T09:06:08.665Z,79.12
2017-11-10T09:07:08.660Z,79.60
2017-11-10T09:08:08.661Z,78.74
2017-11-10T09:09:08.658Z,78.64
2017-11-10T09:10:08.658Z,78.83
2017-11-10T09:11:08.647Z,78.74
2017-11-10T09:12:08.643Z,78.64
2017-11-10T09:13:08.642Z,78.64
2017-11-10T09:14:08.639Z,78.27
2017-11-10T09:15:08.636Z,77.79
2017-11-10T09:16:08.634Z,78.55
2017-11-10T09:17:08.633Z,78.64
2017-11-10T09:18:08.629Z,78.17
2017-11-10T09:19:08.626Z,77.70
2017-11-10T09:20:08.623Z,77.03
2017-11-10T09:21:08.621Z,77.31
2017-11-10T09:22:08.619Z,76.93
2017-11-10T09:23:08.615Z,76.93
2017-11-10T09:24:08.616Z,76.46
2017-11-10T09:25:08.609Z,76.65
2017-11-10T09:26:08.611Z,76.08
2017-11-10T09:27:08.603Z,75.42
2017-11-10T09:28:08.602Z,74.75
2017-11-10T09:29:08.601Z,74.27
2017-11-10T09:30:08.596Z,74.37
2017-11-10T09:31:08.593Z,74.69
2017-11-10T09:32:08.591Z,73.90
2017-11-10T09:33:08.588Z,74.12
2017-11-10T09:34:08.586Z,72.79
2017-11-10T09:35:08.633Z,73.55
2017-11-10T09:36:08.579Z,72.51
2017-11-10T09:37:08.577Z,72.32
2017-11-10T09:38:08.576Z,72.70
2017-11-10T09:39:08.572Z,71.94
2017-11-10T09:40:08.571Z,71.27
2017-11-10T09:41:08.569Z,71.56
2017-11-10T09:42:08.566Z,72.51
2017-11-10T09:43:08.562Z,71.46
2017-11-10T09:44:08.562Z,70.51
2017-11-10T09:45:08.557Z,70.61
2017-11-10T09:46:08.558Z,71.18
2017-11-10T09:47:08.553Z,72.13
2017-11-10T09:48:08.550Z,70.79
2017-11-10T09:49:08.550Z,69.56
2017-11-10T09:50:08.548Z,69.37
2017-11-10T09:51:08.544Z,68.80
2017-11-10T09:52:08.541Z,68.04
2017-11-10T09:53:08.542Z,67.76
2017-11-10T09:54:08.539Z,66.84
2017-11-10T09:55:08.535Z,66.80
2017-11-10T09:56:08.584Z,67.41
2017-11-10T09:57:08.533Z,67.60
2017-11-10T09:58:08.530Z,68.74
2017-11-10T09:59:08.572Z,68.93
2017-11-10T10:00:08.525Z,68.93
2017-11-10T10:01:08.525Z,69.69
2017-11-10T10:02:08.524Z,69.50
2017-11-10T10:03:08.519Z,69.98
2017-11-10T10:04:08.523Z,69.02
2017-11-10T10:05:08.516Z,68.46
2017-11-10T10:06:08.516Z,67.79
2017-11-10T10:07:08.513Z,66.27
2017-11-10T10:08:08.511Z,66.30
2017-11-10T10:09:08.509Z,65.83
2017-11-10T10:10:08.509Z,66.20
2017-11-10T10:11:08.506Z,66.27
2017-11-10T10:12:08.506Z,66.94
2017-11-10T10:13:08.503Z,66.49
2017-11-10T10:14:08.505Z,66.02
2017-11-10T10:15:08.500Z,65.32
2017-11-10T10:16:08.504Z,65.64
2017-11-10T10:17:08.498Z,65.32
2017-11-10T10:18:08.496Z,66.46
2017-11-10T10:19:08.495Z,66.74
2017-11-10T10:20:08.495Z,65.25
2017-11-10T10:21:08.492Z,65.25
2017-11-10T10:22:08.500Z,63.83
2017-11-10T10:23:08.489Z,63.83
2017-11-10T10:24:08.488Z,63.64
2017-11-10T10:25:08.489Z,63.73
2017-11-10T10:26:08.488Z,64.02
2017-11-10T10:27:08.485Z,64.69
2017-11-10T10:28:08.485Z,64.59
2017-11-10T10:29:08.483Z,65.83
2017-11-10T10:30:08.484Z,65.83
2017-11-10T10:31:08.481Z,66.02
2017-11-10T10:32:08.480Z,66.39
2017-11-10T10:33:08.482Z,65.45
2017-11-10T10:34:08.482Z,64.69
2017-11-10T10:35:08.477Z,64.21
2017-11-10T10:36:08.476Z,64.69
2017-11-10T10:37:08.475Z,65.45
2017-11-10T10:38:08.475Z,64.97
2017-11-10T10:39:08.474Z,64.69
2017-11-10T10:40:08.473Z,64.31
2017-11-10T10:41:08.472Z,65.06
2017-11-10T10:42:08.470Z,64.18
2017-11-10T10:43:08.469Z,64.37
2017-11-10T10:44:08.468Z,64.84
2017-11-10T10:45:08.465Z,64.84
2017-11-10T10:46:08.467Z,66.55
2017-11-10T10:47:08.469Z,67.22
2017-11-10T10:48:08.463Z,67.22
2017-11-10T10:49:08.460Z,67.50
2017-11-10T10:50:08.464Z,67.88
2017-11-10T10:51:08.462Z,67.50
2017-11-10T10:52:08.458Z,67.03
2017-11-10T10:53:08.454Z,66.08
2017-11-10T10:54:08.454Z,65.70
2017-11-10T10:55:08.461Z,65.41
2017-11-10T10:56:08.451Z,64.65
2017-11-10T10:57:08.451Z,64.84
2017-11-10T10:58:08.449Z,64.94
2017-11-10T10:59:08.445Z,64.75
2017-11-10T11:00:08.444Z,64.56
2017-11-10T11:01:08.442Z,63.79
2017-11-10T11:02:08.440Z,63.42
2017-11-10T11:03:08.438Z,64.18
2017-11-10T11:04:08.438Z,64.08
2017-11-10T11:05:08.438Z,65.13
2017-11-10T11:06:08.434Z,65.60
2017-11-10T11:07:08.433Z,64.84
2017-11-10T11:08:08.485Z,64.18
2017-11-10T11:09:08.430Z,64.05
2017-11-10T11:10:08.428Z,63.89
2017-11-10T11:11:08.425Z,64.37
2017-11-10T11:12:08.423Z,65.22
2017-11-10T11:13:08.422Z,63.79
2017-11-10T11:14:08.422Z,63.79
2017-11-10T11:15:08.418Z,63.79
2017-11-10T11:16:08.417Z,64.18
2017-11-10T11:17:08.416Z,64.75
2017-11-10T11:18:08.414Z,66.84
2017-11-10T11:19:08.411Z,67.13
2017-11-10T11:20:08.409Z,66.36
2017-11-10T11:21:08.408Z,66.55
2017-11-10T11:22:08.406Z,65.51
2017-11-10T11:23:08.403Z,65.41
2017-11-10T11:24:08.403Z,66.17
2017-11-10T11:25:08.400Z,65.32
2017-11-10T11:26:08.399Z,64.75
2017-11-10T11:27:08.396Z,65.80
2017-11-10T11:28:08.395Z,65.60
2017-11-10T11:29:08.394Z,67.32
2017-11-10T11:30:08.392Z,68.84
2017-11-10T11:31:08.388Z,69.02
2017-11-10T11:32:08.387Z,67.79
2017-11-10T11:33:08.387Z,66.84
2017-11-10T11:34:08.385Z,67.03
2017-11-10T11:35:08.382Z,66.84
2017-11-10T11:36:08.380Z,66.84
2017-11-10T11:37:08.378Z,66.84
2017-11-10T11:38:08.378Z,67.79
2017-11-10T11:39:08.383Z,67.69
2017-11-10T11:40:08.372Z,67.22
2017-11-10T11:41:08.372Z,66.74
2017-11-10T11:42:08.369Z,67.09
2017-11-10T11:43:08.366Z,67.47
2017-11-10T11:44:08.371Z,67.76
2017-11-10T11:45:08.373Z,68.04
2017-11-10T11:46:08.362Z,68.23
2017-11-10T11:47:08.357Z,67.79
2017-11-10T11:48:08.357Z,67.76
2017-11-10T11:49:08.356Z,68.27
2017-11-10T11:50:08.353Z,68.46
2017-11-10T11:51:08.351Z,68.36
2017-11-10T11:52:08.351Z,67.09
2017-11-10T11:53:08.348Z,67.19
2017-11-10T11:54:08.353Z,67.09
2017-11-10T11:55:08.342Z,67.38
2017-11-10T11:56:08.340Z,67.09
2017-11-10T11:57:08.339Z,67.76
2017-11-10T11:58:08.337Z,67.85
2017-11-10T11:59:08.334Z,67.47
2017-11-10T12:00:08.331Z,67.19
2017-11-10T12:01:08.331Z,67.76
2017-11-10T12:02:08.329Z,68.04
2017-11-10T12:03:08.325Z,67.32
2017-11-10T12:04:08.323Z,66.80
2017-11-10T12:05:08.323Z,65.80
2017-11-10T12:06:08.324Z,66.17
2017-11-10T12:07:08.316Z,65.80
2017-11-10T12:08:08.341Z,65.41
2017-11-10T12:09:08.314Z,65.03
2017-11-10T12:10:08.311Z,64.65
2017-11-10T12:11:08.318Z,65.22
2017-11-10T12:12:08.308Z,65.80
2017-11-10T12:13:08.306Z,65.03
2017-11-10T12:14:08.303Z,65.00
2017-11-10T12:15:08.301Z,64.65
2017-11-10T12:16:08.299Z,64.62
2017-11-10T12:17:08.298Z,65.47
2017-11-10T12:18:08.297Z,64.81
2017-11-10T12:19:08.294Z,64.75
2017-11-10T12:20:08.291Z,65.60
2017-11-10T12:21:08.289Z,64.56
2017-11-10T12:22:08.288Z,64.81
2017-11-10T12:23:08.286Z,65.32
2017-11-10T12:24:08.284Z,65.41
2017-11-10T12:25:08.283Z,65.32
2017-11-10T12:26:08.280Z,64.84
2017-11-10T12:27:08.277Z,65.41
2017-11-10T12:28:08.274Z,65.00
2017-11-10T12:29:08.273Z,64.75
2017-11-10T12:30:08.394Z,64.94
2017-11-10T12:31:08.269Z,65.03
2017-11-10T12:32:08.274Z,64.75
2017-11-10T12:33:08.266Z,65.32
2017-11-10T12:34:08.265Z,65.89
2017-11-10T12:35:08.262Z,65.22
2017-11-10T12:36:08.260Z,64.94
2017-11-10T12:37:08.259Z,63.89
2017-11-10T12:38:08.257Z,64.46
2017-11-10T12:39:08.254Z,64.37
2017-11-10T12:40:08.252Z,64.37
2017-11-10T12:41:08.254Z,64.56
2017-11-10T12:42:08.250Z,64.84
2017-11-10T12:43:08.247Z,65.51
2017-11-10T12:44:08.248Z,65.89
2017-11-10T12:45:08.248Z,65.22
2017-11-10T12:46:08.243Z,64.65
2017-11-10T12:47:08.239Z,64.37
2017-11-10T12:48:08.239Z,63.42
2017-11-10T12:49:08.237Z,63.60
2017-11-10T12:50:08.235Z,63.54
2017-11-10T12:51:08.233Z,63.35
2017-11-10T12:52:08.232Z,62.59